sensor_id;sensor_type;location;lat;lon;timestamp;pressure;altitude;pressure_sealevel;temperature
61595;BMP280;47397;48.194;11.632;2022-07-18T00:00:44;96768.81;;;14.98
61595;BMP280;47397;48.194;11.632;2022-07-18T00:01:44;96767.38;;;15.19
61595;BMP280;47397;48.194;11.632;2022-07-18T00:02:45;96770.13;;;15.12
61595;BMP280;47397;48.194;11.632;2022-07-18T00:03:45;96777.88;;;15.10
61595;BMP280;47397;48.194;11.632;2022-07-18T00:04:46;96774.78;;;14.99
61595;BMP280;47397;48.194;11.632;2022-07-18T00:05:46;96778.78;;;15.08
61595;BMP280;47397;48.194;11.632;2022-07-18T00:06:47;96775.09;;;15.18
61595;BMP280;47397;48.194;11.632;2022-07-18T00:07:47;96774.97;;;14.91
61595;BMP280;47397;48.194;11.632;2022-07-18T00:08:47;96774.28;;;14.85
61595;BMP280;47397;48.194;11.632;2022-07-18T00:09:48;96768.19;;;14.90
61595;BMP280;47397;48.194;11.632;2022-07-18T00:10:48;96773.03;;;14.99
61595;BMP280;47397;48.194;11.632;2022-07-18T00:11:51;96768.50;;;15.09
61595;BMP280;47397;48.194;11.632;2022-07-18T00:12:52;96775.69;;;14.96
61595;BMP280;47397;48.194;11.632;2022-07-18T00:13:52;96772.22;;;14.99
61595;BMP280;47397;48.194;11.632;2022-07-18T00:14:53;96771.81;;;15.13
61595;BMP280;47397;48.194;11.632;2022-07-18T00:15:53;96770.66;;;14.93
61595;BMP280;47397;48.194;11.632;2022-07-18T00:16:54;96768.31;;;14.84
61595;BMP280;47397;48.194;11.632;2022-07-18T00:17:54;96770.44;;;14.68
61595;BMP280;47397;48.194;11.632;2022-07-18T00:18:55;96772.19;;;14.68
61595;BMP280;47397;48.194;11.632;2022-07-18T00:19:55;96766.53;;;14.88
61595;BMP280;47397;48.194;11.632;2022-07-18T00:20:56;96772.72;;;14.79
61595;BMP280;47397;48.194;11.632;2022-07-18T00:21:56;96767.44;;;14.87
61595;BMP280;47397;48.194;11.632;2022-07-18T00:22:57;96769.69;;;14.97
61595;BMP280;47397;48.194;11.632;2022-07-18T00:23:57;96775.25;;;14.81
61595;BMP280;47397;48.194;11.632;2022-07-18T00:24:58;96774.47;;;14.77
61595;BMP280;47397;48.194;11.632;2022-07-18T00:25:58;96771.59;;;14.91
61595;BMP280;47397;48.194;11.632;2022-07-18T00:27:00;96771.53;;;14.92
61595;BMP280;47397;48.194;11.632;2022-07-18T00:28:01;96775.56;;;15.01
61595;BMP280;47397;48.194;11.632;2022-07-18T00:29:01;96771.53;;;14.92
61595;BMP280;47397;48.194;11.632;2022-07-18T00:30:03;96772.34;;;14.94
61595;BMP280;47397;48.194;11.632;2022-07-18T00:31:04;96774.19;;;14.89
61595;BMP280;47397;48.194;11.632;2022-07-18T00:32:06;96779.72;;;14.73
61595;BMP280;47397;48.194;11.632;2022-07-18T00:33:08;96776.50;;;14.66
61595;BMP280;47397;48.194;11.632;2022-07-18T00:34:08;96772.81;;;14.76
61595;BMP280;47397;48.194;11.632;2022-07-18T00:35:09;96779.09;;;14.64
61595;BMP280;47397;48.194;11.632;2022-07-18T00:36:09;96775.13;;;14.53
61595;BMP280;47397;48.194;11.632;2022-07-18T00:37:10;96779.53;;;14.46
61595;BMP280;47397;48.194;11.632;2022-07-18T00:38:10;96771.16;;;14.39
61595;BMP280;47397;48.194;11.632;2022-07-18T00:39:10;96768.72;;;14.35
61595;BMP280;47397;48.194;11.632;2022-07-18T00:40:11;96771.28;;;14.35
61595;BMP280;47397;48.194;11.632;2022-07-18T00:41:14;96777.31;;;14.32
61595;BMP280;47397;48.194;11.632;2022-07-18T00:42:15;96776.69;;;14.58
61595;BMP280;47397;48.194;11.632;2022-07-18T00:43:16;96774.56;;;14.74
61595;BMP280;47397;48.194;11.632;2022-07-18T00:44:17;96776.72;;;14.57
61595;BMP280;47397;48.194;11.632;2022-07-18T00:45:18;96777.50;;;14.60
61595;BMP280;47397;48.194;11.632;2022-07-18T00:46:21;96776.94;;;14.48
61595;BMP280;47397;48.194;11.632;2022-07-18T00:47:22;96775.81;;;14.59
61595;BMP280;47397;48.194;11.632;2022-07-18T00:48:22;96769.56;;;14.69
61595;BMP280;47397;48.194;11.632;2022-07-18T00:49:23;96774.56;;;14.40
61595;BMP280;47397;48.194;11.632;2022-07-18T00:50:23;96767.13;;;14.31
61595;BMP280;47397;48.194;11.632;2022-07-18T00:51:24;96776.84;;;14.17
61595;BMP280;47397;48.194;11.632;2022-07-18T00:52:24;96771.56;;;14.23
61595;BMP280;47397;48.194;11.632;2022-07-18T00:53:25;96775.13;;;14.17
61595;BMP280;47397;48.194;11.632;2022-07-18T00:54:25;96774.44;;;14.09
61595;BMP280;47397;48.194;11.632;2022-07-18T00:55:26;96767.91;;;14.33
61595;BMP280;47397;48.194;11.632;2022-07-18T00:56:26;96766.78;;;14.45
61595;BMP280;47397;48.194;11.632;2022-07-18T00:57:28;96767.91;;;14.33
61595;BMP280;47397;48.194;11.632;2022-07-18T00:58:29;96765.84;;;14.13
61595;BMP280;47397;48.194;11.632;2022-07-18T00:59:29;96761.13;;;14.32
61595;BMP280;47397;48.194;11.632;2022-07-18T01:00:30;96765.41;;;14.31
61595;BMP280;47397;48.194;11.632;2022-07-18T01:01:30;96758.97;;;14.15
61595;BMP280;47397;48.194;11.632;2022-07-18T01:02:31;96763.28;;;14.13
61595;BMP280;47397;48.194;11.632;2022-07-18T01:03:32;96766.50;;;14.21
61595;BMP280;47397;48.194;11.632;2022-07-18T01:04:32;96764.88;;;14.19
61595;BMP280;47397;48.194;11.632;2022-07-18T01:05:32;96757.63;;;14.34
61595;BMP280;47397;48.194;11.632;2022-07-18T01:06:33;96763.34;;;14.46
61595;BMP280;47397;48.194;11.632;2022-07-18T01:07:34;96765.31;;;14.34
61595;BMP280;47397;48.194;11.632;2022-07-18T01:08:34;96765.31;;;14.34
61595;BMP280;47397;48.194;11.632;2022-07-18T01:09:35;96760.91;;;14.39
61595;BMP280;47397;48.194;11.632;2022-07-18T01:10:35;96762.47;;;14.11
61595;BMP280;47397;48.194;11.632;2022-07-18T01:11:36;96765.31;;;14.34
61595;BMP280;47397;48.194;11.632;2022-07-18T01:12:38;96764.50;;;14.32
61595;BMP280;47397;48.194;11.632;2022-07-18T01:13:39;96774.03;;;14.27
61595;BMP280;47397;48.194;11.632;2022-07-18T01:14:40;96771.28;;;14.35
61595;BMP280;47397;48.194;11.632;2022-07-18T01:15:40;96765.50;;;14.27
61595;BMP280;47397;48.194;11.632;2022-07-18T01:16:41;96763.47;;;14.39
61595;BMP280;47397;48.194;11.632;2022-07-18T01:17:42;96758.16;;;14.50
61595;BMP280;47397;48.194;11.632;2022-07-18T01:18:44;96758.72;;;14.26
61595;BMP280;47397;48.194;11.632;2022-07-18T01:19:45;96763.88;;;14.24
61595;BMP280;47397;48.194;11.632;2022-07-18T01:20:47;96764.38;;;14.03
61595;BMP280;47397;48.194;11.632;2022-07-18T01:21:47;96767.56;;;14.11
61595;BMP280;47397;48.194;11.632;2022-07-18T01:22:48;96766.53;;;14.20
61595;BMP280;47397;48.194;11.632;2022-07-18T01:23:48;96769.94;;;14.20
61595;BMP280;47397;48.194;11.632;2022-07-18T01:24:49;96767.06;;;14.32
61595;BMP280;47397;48.194;11.632;2022-07-18T01:25:49;96766.16;;;14.35
61595;BMP280;47397;48.194;11.632;2022-07-18T01:26:50;96761.88;;;14.35
61595;BMP280;47397;48.194;11.632;2022-07-18T01:27:51;96761.72;;;14.42
61595;BMP280;47397;48.194;11.632;2022-07-18T01:28:51;96762.50;;;14.45
61595;BMP280;47397;48.194;11.632;2022-07-18T01:29:52;96765.16;;;14.40
61595;BMP280;47397;48.194;11.632;2022-07-18T01:30:53;96765.25;;;14.37
61595;BMP280;47397;48.194;11.632;2022-07-18T01:31:53;96760.19;;;14.34
61595;BMP280;47397;48.194;11.632;2022-07-18T01:32:55;96761.81;;;14.38
61595;BMP280;47397;48.194;11.632;2022-07-18T01:33:56;96766.91;;;14.38
61595;BMP280;47397;48.194;11.632;2022-07-18T01:34:56;96767.84;;;14.36
61595;BMP280;47397;48.194;11.632;2022-07-18T01:35:59;96770.75;;;14.22
61595;BMP280;47397;48.194;11.632;2022-07-18T01:36:59;96767.03;;;13.98
61595;BMP280;47397;48.194;11.632;2022-07-18T01:38:01;96772.19;;;13.97
61595;BMP280;47397;48.194;11.632;2022-07-18T01:39:02;96760.50;;;13.87
61595;BMP280;47397;48.194;11.632;2022-07-18T01:40:07;96762.09;;;13.91
61595;BMP280;47397;48.194;11.632;2022-07-18T01:41:07;96769.25;;;14.14
61595;BMP280;47397;48.194;11.632;2022-07-18T01:42:09;96768.78;;;13.96
61595;BMP280;47397;48.194;11.632;2022-07-18T01:43:10;96765.28;;;14.00
61595;BMP280;47397;48.194;11.632;2022-07-18T01:44:11;96767.75;;;14.03
61595;BMP280;47397;48.194;11.632;2022-07-18T01:45:12;96768.44;;;14.10
61595;BMP280;47397;48.194;11.632;2022-07-18T01:46:12;96759.41;;;13.97
61595;BMP280;47397;48.194;11.632;2022-07-18T01:47:13;96756.41;;;13.80
61595;BMP280;47397;48.194;11.632;2022-07-18T01:48:13;96764.81;;;13.85
61595;BMP280;47397;48.194;11.632;2022-07-18T01:49:14;96765.31;;;13.62
61595;BMP280;47397;48.194;11.632;2022-07-18T01:50:15;96761.81;;;13.66
61595;BMP280;47397;48.194;11.632;2022-07-18T01:51:17;96763.38;;;13.71
61595;BMP280;47397;48.194;11.632;2022-07-18T01:52:17;96770.06;;;13.79
61595;BMP280;47397;48.194;11.632;2022-07-18T01:53:18;96770.13;;;13.75
61595;BMP280;47397;48.194;11.632;2022-07-18T01:54:19;96769.91;;;13.85
61595;BMP280;47397;48.194;11.632;2022-07-18T01:55:19;96768.69;;;14.01
61595;BMP280;47397;48.194;11.632;2022-07-18T01:56:20;96769.63;;;13.97
61595;BMP280;47397;48.194;11.632;2022-07-18T01:57:20;96775.25;;;14.11
61595;BMP280;47397;48.194;11.632;2022-07-18T01:58:21;96772.69;;;14.11
61595;BMP280;47397;48.194;11.632;2022-07-18T01:59:21;96768.03;;;13.93
61595;BMP280;47397;48.194;11.632;2022-07-18T02:00:22;96767.78;;;13.65
61595;BMP280;47397;48.194;11.632;2022-07-18T02:01:23;96768.09;;;13.51
61595;BMP280;47397;48.194;11.632;2022-07-18T02:02:23;96761.47;;;13.42
61595;BMP280;47397;48.194;11.632;2022-07-18T02:03:24;96765.81;;;13.37
61595;BMP280;47397;48.194;11.632;2022-07-18T02:04:24;96767.53;;;13.37
61595;BMP280;47397;48.194;11.632;2022-07-18T02:05:25;96766.31;;;13.55
61595;BMP280;47397;48.194;11.632;2022-07-18T02:06:26;96764.31;;;13.67
61595;BMP280;47397;48.194;11.632;2022-07-18T02:07:27;96768.38;;;13.77
61595;BMP280;47397;48.194;11.632;2022-07-18T02:08:28;96762.22;;;13.86
61595;BMP280;47397;48.194;11.632;2022-07-18T02:09:28;96764.72;;;13.88
61595;BMP280;47397;48.194;11.632;2022-07-18T02:10:29;96768.09;;;13.90
61595;BMP280;47397;48.194;11.632;2022-07-18T02:11:29;96763.94;;;13.86
61595;BMP280;47397;48.194;11.632;2022-07-18T02:12:30;96768.41;;;13.74
61595;BMP280;47397;48.194;11.632;2022-07-18T02:13:30;96769.66;;;13.58
61595;BMP280;47397;48.194;11.632;2022-07-18T02:14:31;96767.09;;;13.58
61595;BMP280;47397;48.194;11.632;2022-07-18T02:15:31;96763.03;;;13.50
61595;BMP280;47397;48.194;11.632;2022-07-18T02:16:32;96763.88;;;13.50
61595;BMP280;47397;48.194;11.632;2022-07-18T02:17:33;96763.44;;;13.68
61595;BMP280;47397;48.194;11.632;2022-07-18T02:18:33;96764.38;;;13.66
61595;BMP280;47397;48.194;11.632;2022-07-18T02:19:34;96764.91;;;13.80
61595;BMP280;47397;48.194;11.632;2022-07-18T02:20:34;96763.94;;;13.86
61595;BMP280;47397;48.194;11.632;2022-07-18T02:21:36;96761.44;;;13.83
61595;BMP280;47397;48.194;11.632;2022-07-18T02:22:37;96765.41;;;13.57
61595;BMP280;47397;48.194;11.632;2022-07-18T02:23:37;96758.91;;;13.44
61595;BMP280;47397;48.194;11.632;2022-07-18T02:24:38;96756.63;;;13.29
61595;BMP280;47397;48.194;11.632;2022-07-18T02:25:38;96760.09;;;13.26
61595;BMP280;47397;48.194;11.632;2022-07-18T02:26:39;96767.53;;;13.37
61595;BMP280;47397;48.194;11.632;2022-07-18T02:27:39;96760.25;;;13.19
61595;BMP280;47397;48.194;11.632;2022-07-18T02:28:39;96761.81;;;13.26
61595;BMP280;47397;48.194;11.632;2022-07-18T02:29:40;96760.50;;;13.48
61595;BMP280;47397;48.194;11.632;2022-07-18T02:30:40;96757.63;;;13.62
61595;BMP280;47397;48.194;11.632;2022-07-18T02:31:41;96756.66;;;13.67
61595;BMP280;47397;48.194;11.632;2022-07-18T02:32:41;96750.25;;;13.50
61595;BMP280;47397;48.194;11.632;2022-07-18T02:33:42;96758.22;;;13.34
61595;BMP280;47397;48.194;11.632;2022-07-18T02:34:42;96755.19;;;13.17
61595;BMP280;47397;48.194;11.632;2022-07-18T02:35:43;96753.56;;;13.11
61595;BMP280;47397;48.194;11.632;2022-07-18T02:36:45;96750.97;;;13.14
61595;BMP280;47397;48.194;11.632;2022-07-18T02:37:45;96755.28;;;13.11
61595;BMP280;47397;48.194;11.632;2022-07-18T02:38:46;96747.75;;;13.05
61595;BMP280;47397;48.194;11.632;2022-07-18T02:39:46;96751.31;;;12.96
61595;BMP280;47397;48.194;11.632;2022-07-18T02:40:46;96749.47;;;13.04
61595;BMP280;47397;48.194;11.632;2022-07-18T02:41:47;96750.94;;;13.16
61595;BMP280;47397;48.194;11.632;2022-07-18T02:42:48;96748.53;;;13.08
61595;BMP280;47397;48.194;11.632;2022-07-18T02:43:48;96753.41;;;13.21
61595;BMP280;47397;48.194;11.632;2022-07-18T02:44:49;96750.44;;;13.42
61595;BMP280;47397;48.194;11.632;2022-07-18T02:45:49;96754.72;;;13.40
61595;BMP280;47397;48.194;11.632;2022-07-18T02:46:49;96754.47;;;13.52
61595;BMP280;47397;48.194;11.632;2022-07-18T02:47:50;96762.38;;;13.40
61595;BMP280;47397;48.194;11.632;2022-07-18T02:48:50;96756.63;;;13.29
61595;BMP280;47397;48.194;11.632;2022-07-18T02:49:51;96758.91;;;13.44
61595;BMP280;47397;48.194;11.632;2022-07-18T02:50:51;96756.00;;;13.19
61595;BMP280;47397;48.194;11.632;2022-07-18T02:51:54;96758.22;;;13.34
61595;BMP280;47397;48.194;11.632;2022-07-18T02:52:55;96766.31;;;13.13
61595;BMP280;47397;48.194;11.632;2022-07-18T02:53:55;96763.66;;;13.19
61595;BMP280;47397;48.194;11.632;2022-07-18T02:54:56;96757.22;;;13.43
61595;BMP280;47397;48.194;11.632;2022-07-18T02:55:56;96761.09;;;13.19
61595;BMP280;47397;48.194;11.632;2022-07-18T02:56:57;96767.38;;;13.03
61595;BMP280;47397;48.194;11.632;2022-07-18T02:57:57;96771.28;;;13.21
61595;BMP280;47397;48.194;11.632;2022-07-18T02:58:58;96768.81;;;13.14
61595;BMP280;47397;48.194;11.632;2022-07-18T02:59:58;96772.19;;;13.17
61595;BMP280;47397;48.194;11.632;2022-07-18T03:00:59;96759.13;;;13.32
61595;BMP280;47397;48.194;11.632;2022-07-18T03:01:59;96766.03;;;13.27
61595;BMP280;47397;48.194;11.632;2022-07-18T03:03:00;96766.88;;;13.27
61595;BMP280;47397;48.194;11.632;2022-07-18T03:04:01;96762.53;;;13.32
61595;BMP280;47397;48.194;11.632;2022-07-18T03:05:01;96761.88;;;13.23
61595;BMP280;47397;48.194;11.632;2022-07-18T03:06:02;96769.75;;;13.10
61595;BMP280;47397;48.194;11.632;2022-07-18T03:07:04;96765.63;;;13.05
61595;BMP280;47397;48.194;11.632;2022-07-18T03:08:05;96765.59;;;13.06
61595;BMP280;47397;48.194;11.632;2022-07-18T03:09:05;96764.88;;;12.98
61595;BMP280;47397;48.194;11.632;2022-07-18T03:10:06;96761.56;;;12.93
61595;BMP280;47397;48.194;11.632;2022-07-18T03:11:07;96761.53;;;12.95
61595;BMP280;47397;48.194;11.632;2022-07-18T03:12:08;96766.97;;;12.78
61595;BMP280;47397;48.194;11.632;2022-07-18T03:13:08;96770.50;;;12.71
61595;BMP280;47397;48.194;11.632;2022-07-18T03:14:09;96766.16;;;12.76
61595;BMP280;47397;48.194;11.632;2022-07-18T03:15:10;96766.69;;;12.93
61595;BMP280;47397;48.194;11.632;2022-07-18T03:16:10;96765.78;;;12.96
61595;BMP280;47397;48.194;11.632;2022-07-18T03:17:11;96764.00;;;12.99
61595;BMP280;47397;48.194;11.632;2022-07-18T03:18:11;96764.94;;;12.95
61595;BMP280;47397;48.194;11.632;2022-07-18T03:19:12;96770.78;;;13.00
61595;BMP280;47397;48.194;11.632;2022-07-18T03:20:12;96772.69;;;12.91
61595;BMP280;47397;48.194;11.632;2022-07-18T03:21:12;96769.09;;;13.01
61595;BMP280;47397;48.194;11.632;2022-07-18T03:22:14;96774.22;;;12.99
61595;BMP280;47397;48.194;11.632;2022-07-18T03:23:15;96777.47;;;13.07
61595;BMP280;47397;48.194;11.632;2022-07-18T03:24:15;96773.84;;;13.21
61595;BMP280;47397;48.194;11.632;2022-07-18T03:25:16;96783.09;;;13.26
61595;BMP280;47397;48.194;11.632;2022-07-18T03:26:16;96776.09;;;13.34
61595;BMP280;47397;48.194;11.632;2022-07-18T03:27:17;96785.41;;;13.37
61595;BMP280;47397;48.194;11.632;2022-07-18T03:28:20;96778.78;;;13.28
61595;BMP280;47397;48.194;11.632;2022-07-18T03:29:20;96781.06;;;13.42
61595;BMP280;47397;48.194;11.632;2022-07-18T03:30:21;96780.56;;;13.25
61595;BMP280;47397;48.194;11.632;2022-07-18T03:31:21;96782.91;;;13.34
61595;BMP280;47397;48.194;11.632;2022-07-18T03:32:22;96782.75;;;12.98
61595;BMP280;47397;48.194;11.632;2022-07-18T03:33:22;96787.16;;;12.90
61595;BMP280;47397;48.194;11.632;2022-07-18T03:34:23;96786.50;;;12.80
61595;BMP280;47397;48.194;11.632;2022-07-18T03:35:23;96788.16;;;12.81
61595;BMP280;47397;48.194;11.632;2022-07-18T03:36:24;96792.53;;;12.76
61595;BMP280;47397;48.194;11.632;2022-07-18T03:37:25;96789.22;;;12.71
61595;BMP280;47397;48.194;11.632;2022-07-18T03:38:26;96788.06;;;12.86
61595;BMP280;47397;48.194;11.632;2022-07-18T03:39:26;96792.25;;;12.90
61595;BMP280;47397;48.194;11.632;2022-07-18T03:40:27;96792.72;;;12.66
61595;BMP280;47397;48.194;11.632;2022-07-18T03:41:27;96794.44;;;12.64
61595;BMP280;47397;48.194;11.632;2022-07-18T03:42:27;96795.25;;;12.67
61595;BMP280;47397;48.194;11.632;2022-07-18T03:43:28;96787.63;;;12.63
61595;BMP280;47397;48.194;11.632;2022-07-18T03:44:28;96798.50;;;12.74
61595;BMP280;47397;48.194;11.632;2022-07-18T03:45:29;96794.69;;;12.96
61595;BMP280;47397;48.194;11.632;2022-07-18T03:46:29;96802.31;;;12.98
61595;BMP280;47397;48.194;11.632;2022-07-18T03:47:30;96803.97;;;13.00
61595;BMP280;47397;48.194;11.632;2022-07-18T03:48:30;96800.31;;;13.13
61595;BMP280;47397;48.194;11.632;2022-07-18T03:49:31;96804.50;;;13.19
61595;BMP280;47397;48.194;11.632;2022-07-18T03:50:31;96807.78;;;13.26
61595;BMP280;47397;48.194;11.632;2022-07-18T03:51:32;96805.78;;;12.94
61595;BMP280;47397;48.194;11.632;2022-07-18T03:52:34;96811.22;;;12.77
61595;BMP280;47397;48.194;11.632;2022-07-18T03:53:34;96808.50;;;12.86
61595;BMP280;47397;48.194;11.632;2022-07-18T03:54:34;96811.75;;;12.94
61595;BMP280;47397;48.194;11.632;2022-07-18T03:55:35;96804.75;;;13.05
61595;BMP280;47397;48.194;11.632;2022-07-18T03:56:36;96806.25;;;13.17
61595;BMP280;47397;48.194;11.632;2022-07-18T03:57:36;96804.31;;;13.28
61595;BMP280;47397;48.194;11.632;2022-07-18T03:58:37;96806.13;;;13.23
61595;BMP280;47397;48.194;11.632;2022-07-18T03:59:37;96807.94;;;13.18
61595;BMP280;47397;48.194;11.632;2022-07-18T04:00:38;96806.41;;;13.08
61595;BMP280;47397;48.194;11.632;2022-07-18T04:01:38;96809.19;;;12.94
61595;BMP280;47397;48.194;11.632;2022-07-18T04:02:39;96813.66;;;12.83
61595;BMP280;47397;48.194;11.632;2022-07-18T04:03:39;96810.31;;;12.79
61595;BMP280;47397;48.194;11.632;2022-07-18T04:04:40;96801.81;;;12.79
61595;BMP280;47397;48.194;11.632;2022-07-18T04:05:40;96805.44;;;12.67
61595;BMP280;47397;48.194;11.632;2022-07-18T04:06:41;96805.53;;;12.61
61595;BMP280;47397;48.194;11.632;2022-07-18T04:07:43;96806.41;;;12.59
61595;BMP280;47397;48.194;11.632;2022-07-18T04:08:44;96798.50;;;12.75
61595;BMP280;47397;48.194;11.632;2022-07-18T04:09:44;96811.97;;;12.82
61595;BMP280;47397;48.194;11.632;2022-07-18T04:10:45;96807.75;;;12.79
61595;BMP280;47397;48.194;11.632;2022-07-18T04:11:45;96804.19;;;12.88
61595;BMP280;47397;48.194;11.632;2022-07-18T04:12:46;96802.56;;;12.84
61595;BMP280;47397;48.194;11.632;2022-07-18T04:13:47;96803.25;;;12.94
61595;BMP280;47397;48.194;11.632;2022-07-18T04:14:47;96805.66;;;13.03
61595;BMP280;47397;48.194;11.632;2022-07-18T04:15:47;96813.22;;;13.07
61595;BMP280;47397;48.194;11.632;2022-07-18T04:16:48;96799.44;;;13.16
61595;BMP280;47397;48.194;11.632;2022-07-18T04:17:49;96807.84;;;13.23
61595;BMP280;47397;48.194;11.632;2022-07-18T04:18:50;96804.91;;;12.96
61595;BMP280;47397;48.194;11.632;2022-07-18T04:19:51;96800.78;;;12.89
61595;BMP280;47397;48.194;11.632;2022-07-18T04:20:51;96804.19;;;12.88
61595;BMP280;47397;48.194;11.632;2022-07-18T04:21:52;96807.53;;;12.92
61595;BMP280;47397;48.194;11.632;2022-07-18T04:22:55;96812.50;;;12.99
61595;BMP280;47397;48.194;11.632;2022-07-18T04:23:55;96804.09;;;12.94
61595;BMP280;47397;48.194;11.632;2022-07-18T04:24:56;96807.38;;;13.01
61595;BMP280;47397;48.194;11.632;2022-07-18T04:25:56;96808.41;;;12.91
61595;BMP280;47397;48.194;11.632;2022-07-18T04:26:57;96805.00;;;12.90
61595;BMP280;47397;48.194;11.632;2022-07-18T04:27:57;96805.19;;;12.81
61595;BMP280;47397;48.194;11.632;2022-07-18T04:28:57;96815.47;;;12.76
61595;BMP280;47397;48.194;11.632;2022-07-18T04:29:58;96808.63;;;12.78
61595;BMP280;47397;48.194;11.632;2022-07-18T04:30:58;96807.75;;;12.79
61595;BMP280;47397;48.194;11.632;2022-07-18T04:31:59;96810.34;;;12.78
61595;BMP280;47397;48.194;11.632;2022-07-18T04:33:01;96805.72;;;12.98
61595;BMP280;47397;48.194;11.632;2022-07-18T04:34:01;96795.25;;;13.12
61595;BMP280;47397;48.194;11.632;2022-07-18T04:35:02;96806.28;;;13.14
61595;BMP280;47397;48.194;11.632;2022-07-18T04:36:03;96807.44;;;12.96
61595;BMP280;47397;48.194;11.632;2022-07-18T04:37:03;96805.91;;;12.88
61595;BMP280;47397;48.194;11.632;2022-07-18T04:38:07;96803.13;;;13.01
61595;BMP280;47397;48.194;11.632;2022-07-18T04:39:08;96807.56;;;12.90
61595;BMP280;47397;48.194;11.632;2022-07-18T04:40:10;96810.72;;;13.04
61595;BMP280;47397;48.194;11.632;2022-07-18T04:41:10;96808.78;;;13.19
61595;BMP280;47397;48.194;11.632;2022-07-18T04:42:11;96799.47;;;13.14
61595;BMP280;47397;48.194;11.632;2022-07-18T04:43:11;96806.16;;;13.22
61595;BMP280;47397;48.194;11.632;2022-07-18T04:44:11;96804.75;;;13.05
61595;BMP280;47397;48.194;11.632;2022-07-18T04:45:12;96806.56;;;12.97
61595;BMP280;47397;48.194;11.632;2022-07-18T04:46:12;96803.13;;;13.00
61595;BMP280;47397;48.194;11.632;2022-07-18T04:47:13;96800.41;;;13.09
61595;BMP280;47397;48.194;11.632;2022-07-18T04:48:13;96801.81;;;13.25
61595;BMP280;47397;48.194;11.632;2022-07-18T04:49:14;96802.47;;;13.35
61595;BMP280;47397;48.194;11.632;2022-07-18T04:50:14;96801.44;;;13.45
61595;BMP280;47397;48.194;11.632;2022-07-18T04:51:14;96805.84;;;13.38
61595;BMP280;47397;48.194;11.632;2022-07-18T04:52:15;96797.88;;;13.52
61595;BMP280;47397;48.194;11.632;2022-07-18T04:53:17;96797.69;;;13.61
61595;BMP280;47397;48.194;11.632;2022-07-18T04:54:18;96798.50;;;13.62
61595;BMP280;47397;48.194;11.632;2022-07-18T04:55:20;96800.19;;;13.63
61595;BMP280;47397;48.194;11.632;2022-07-18T04:56:21;96794.16;;;13.67
61595;BMP280;47397;48.194;11.632;2022-07-18T04:57:21;96792.47;;;13.66
61595;BMP280;47397;48.194;11.632;2022-07-18T04:58:22;96797.03;;;13.52
61595;BMP280;47397;48.194;11.632;2022-07-18T04:59:22;96796.69;;;13.67
61595;BMP280;47397;48.194;11.632;2022-07-18T05:00:24;96799.50;;;13.56
61595;BMP280;47397;48.194;11.632;2022-07-18T05:01:25;96800.25;;;13.60
61595;BMP280;47397;48.194;11.632;2022-07-18T05:02:25;96794.91;;;13.70
61595;BMP280;47397;48.194;11.632;2022-07-18T05:03:26;96797.59;;;13.64
61595;BMP280;47397;48.194;11.632;2022-07-18T05:04:26;96799.09;;;13.74
61595;BMP280;47397;48.194;11.632;2022-07-18T05:05:27;96796.41;;;13.81
61595;BMP280;47397;48.194;11.632;2022-07-18T05:06:28;96800.41;;;13.92
61595;BMP280;47397;48.194;11.632;2022-07-18T05:07:28;96801.06;;;14.00
61595;BMP280;47397;48.194;11.632;2022-07-18T05:08:30;96797.66;;;14.00
61595;BMP280;47397;48.194;11.632;2022-07-18T05:09:31;96799.38;;;13.99
61595;BMP280;47397;48.194;11.632;2022-07-18T05:10:32;96800.25;;;13.98
61595;BMP280;47397;48.194;11.632;2022-07-18T05:11:32;96795.84;;;14.05
61595;BMP280;47397;48.194;11.632;2022-07-18T05:12:33;96795.84;;;14.05
61595;BMP280;47397;48.194;11.632;2022-07-18T05:13:33;96801.03;;;14.02
61595;BMP280;47397;48.194;11.632;2022-07-18T05:14:34;96793.31;;;14.03
61595;BMP280;47397;48.194;11.632;2022-07-18T05:15:34;96799.94;;;14.12
61595;BMP280;47397;48.194;11.632;2022-07-18T05:16:35;96803.03;;;14.26
61595;BMP280;47397;48.194;11.632;2022-07-18T05:17:36;96805.13;;;14.46
61595;BMP280;47397;48.194;11.632;2022-07-18T05:18:36;96801.38;;;14.61
61595;BMP280;47397;48.194;11.632;2022-07-18T05:19:37;96802.88;;;14.68
61595;BMP280;47397;48.194;11.632;2022-07-18T05:20:37;96805.97;;;14.81
61595;BMP280;47397;48.194;11.632;2022-07-18T05:21:38;96802.25;;;14.92
61595;BMP280;47397;48.194;11.632;2022-07-18T05:22:38;96798.31;;;15.12
61595;BMP280;47397;48.194;11.632;2022-07-18T05:23:40;96797.09;;;15.25
61595;BMP280;47397;48.194;11.632;2022-07-18T05:24:41;96797.72;;;15.33
61595;BMP280;47397;48.194;11.632;2022-07-18T05:25:42;96796.66;;;15.40
61595;BMP280;47397;48.194;11.632;2022-07-18T05:26:42;96788.63;;;15.52
61595;BMP280;47397;48.194;11.632;2022-07-18T05:27:43;96788.78;;;15.77
61595;BMP280;47397;48.194;11.632;2022-07-18T05:28:43;96793.97;;;16.04
61595;BMP280;47397;48.194;11.632;2022-07-18T05:29:44;96790.56;;;16.30
61595;BMP280;47397;48.194;11.632;2022-07-18T05:30:44;96789.00;;;16.52
61595;BMP280;47397;48.194;11.632;2022-07-18T05:31:44;96790.34;;;16.37
61595;BMP280;47397;48.194;11.632;2022-07-18T05:32:45;96785.69;;;16.48
61595;BMP280;47397;48.194;11.632;2022-07-18T05:33:45;96785.44;;;16.30
61595;BMP280;47397;48.194;11.632;2022-07-18T05:34:46;96786.66;;;16.18
61595;BMP280;47397;48.194;11.632;2022-07-18T05:35:46;96791.91;;;15.87
61595;BMP280;47397;48.194;11.632;2022-07-18T05:36:47;96792.94;;;15.81
61595;BMP280;47397;48.194;11.632;2022-07-18T05:37:48;96787.75;;;15.83
61595;BMP280;47397;48.194;11.632;2022-07-18T05:38:50;96791.59;;;15.96
61595;BMP280;47397;48.194;11.632;2022-07-18T05:39:50;96790.66;;;16.00
61595;BMP280;47397;48.194;11.632;2022-07-18T05:40:51;96791.34;;;16.05
61595;BMP280;47397;48.194;11.632;2022-07-18T05:41:51;96792.50;;;15.95
61595;BMP280;47397;48.194;11.632;2022-07-18T05:42:52;96794.69;;;16.07
61595;BMP280;47397;48.194;11.632;2022-07-18T05:43:52;96783.31;;;16.16
61595;BMP280;47397;48.194;11.632;2022-07-18T05:44:52;96782.84;;;16.30